sensor_id;sensor_type;location;lat;lon;timestamp;P1;durP1;ratioP1;P2;durP2;ratioP2
32319;SDS011;19080;51.750;5.888;2023-07-22T00:02:24;12.93;;;10.30;;
32319;SDS011;19080;51.750;5.888;2023-07-22T00:04:51;12.48;;;11.02;;
32319;SDS011;19080;51.750;5.888;2023-07-22T00:07:18;14.90;;;11.40;;
32319;SDS011;19080;51.750;5.888;2023-07-22T00:09:45;13.10;;;10.57;;
32319;SDS011;19080;51.750;5.888;2023-07-22T00:12:11;13.45;;;11.02;;
32319;SDS011;19080;51.750;5.888;2023-07-22T00:14:39;13.98;;;11.10;;
32319;SDS011;19080;51.750;5.888;2023-07-22T00:17:07;16.10;;;11.02;;
32319;SDS011;19080;51.750;5.888;2023-07-22T00:19:34;13.52;;;10.77;;
32319;SDS011;19080;51.750;5.888;2023-07-22T00:22:01;15.55;;;11.00;;
32319;SDS011;19080;51.750;5.888;2023-07-22T00:24:28;15.93;;;12.05;;
32319;SDS011;19080;51.750;5.888;2023-07-22T00:26:55;15.48;;;11.27;;
32319;SDS011;19080;51.750;5.888;2023-07-22T00:29:22;13.77;;;10.90;;
32319;SDS011;19080;51.750;5.888;2023-07-22T00:31:49;14.10;;;10.00;;
32319;SDS011;19080;51.750;5.888;2023-07-22T00:34:15;13.52;;;11.25;;
32319;SDS011;19080;51.750;5.888;2023-07-22T00:36:43;16.60;;;11.07;;
32319;SDS011;19080;51.750;5.888;2023-07-22T00:39:10;13.68;;;11.38;;
32319;SDS011;19080;51.750;5.888;2023-07-22T00:41:40;16.20;;;11.18;;
32319;SDS011;19080;51.750;5.888;2023-07-22T00:44:08;18.45;;;11.90;;
32319;SDS011;19080;51.750;5.888;2023-07-22T00:46:35;13.85;;;11.35;;
32319;SDS011;19080;51.750;5.888;2023-07-22T00:49:02;17.42;;;12.70;;
32319;SDS011;19080;51.750;5.888;2023-07-22T00:51:29;15.68;;;11.38;;
32319;SDS011;19080;51.750;5.888;2023-07-22T00:53:56;17.45;;;11.75;;
32319;SDS011;19080;51.750;5.888;2023-07-22T00:56:22;15.00;;;11.52;;
32319;SDS011;19080;51.750;5.888;2023-07-22T00:58:50;19.13;;;13.63;;
32319;SDS011;19080;51.750;5.888;2023-07-22T01:01:18;17.05;;;13.05;;
32319;SDS011;19080;51.750;5.888;2023-07-22T01:03:45;20.63;;;13.55;;
32319;SDS011;19080;51.750;5.888;2023-07-22T01:06:13;15.38;;;12.90;;
32319;SDS011;19080;51.750;5.888;2023-07-22T01:08:40;16.30;;;11.90;;
32319;SDS011;19080;51.750;5.888;2023-07-22T01:11:07;18.02;;;13.57;;
32319;SDS011;19080;51.750;5.888;2023-07-22T01:13:34;20.23;;;13.35;;
32319;SDS011;19080;51.750;5.888;2023-07-22T01:16:00;17.52;;;12.25;;
32319;SDS011;19080;51.750;5.888;2023-07-22T01:18:27;16.23;;;12.52;;
32319;SDS011;19080;51.750;5.888;2023-07-22T01:20:54;16.73;;;13.25;;
32319;SDS011;19080;51.750;5.888;2023-07-22T01:23:21;16.08;;;12.48;;
32319;SDS011;19080;51.750;5.888;2023-07-22T01:25:47;17.23;;;12.88;;
32319;SDS011;19080;51.750;5.888;2023-07-22T01:28:15;18.10;;;13.73;;
32319;SDS011;19080;51.750;5.888;2023-07-22T01:30:41;18.55;;;13.63;;
32319;SDS011;19080;51.750;5.888;2023-07-22T01:33:08;19.35;;;13.75;;
32319;SDS011;19080;51.750;5.888;2023-07-22T01:35:35;18.27;;;14.35;;
32319;SDS011;19080;51.750;5.888;2023-07-22T01:38:01;17.08;;;13.30;;
32319;SDS011;19080;51.750;5.888;2023-07-22T01:40:28;19.02;;;13.00;;
32319;SDS011;19080;51.750;5.888;2023-07-22T01:42:54;18.00;;;13.82;;
32319;SDS011;19080;51.750;5.888;2023-07-22T01:45:21;18.40;;;13.60;;
32319;SDS011;19080;51.750;5.888;2023-07-22T01:47:48;17.73;;;13.38;;
32319;SDS011;19080;51.750;5.888;2023-07-22T01:50:15;21.15;;;13.75;;
32319;SDS011;19080;51.750;5.888;2023-07-22T01:52:42;17.63;;;12.80;;
32319;SDS011;19080;51.750;5.888;2023-07-22T01:55:08;20.75;;;15.13;;
32319;SDS011;19080;51.750;5.888;2023-07-22T01:57:38;16.42;;;13.05;;
32319;SDS011;19080;51.750;5.888;2023-07-22T02:00:06;18.38;;;12.80;;
32319;SDS011;19080;51.750;5.888;2023-07-22T02:02:41;19.35;;;13.45;;
32319;SDS011;19080;51.750;5.888;2023-07-22T02:05:09;18.75;;;14.25;;
32319;SDS011;19080;51.750;5.888;2023-07-22T02:07:38;15.73;;;12.80;;
32319;SDS011;19080;51.750;5.888;2023-07-22T02:10:06;17.95;;;12.68;;
32319;SDS011;19080;51.750;5.888;2023-07-22T02:12:33;17.80;;;13.30;;
32319;SDS011;19080;51.750;5.888;2023-07-22T02:14:59;16.17;;;12.80;;
32319;SDS011;19080;51.750;5.888;2023-07-22T02:17:26;14.10;;;11.50;;
32319;SDS011;19080;51.750;5.888;2023-07-22T02:19:53;18.50;;;13.40;;
32319;SDS011;19080;51.750;5.888;2023-07-22T02:22:19;17.38;;;12.60;;
32319;SDS011;19080;51.750;5.888;2023-07-22T02:24:46;17.70;;;13.43;;
32319;SDS011;19080;51.750;5.888;2023-07-22T02:27:13;17.67;;;13.30;;
32319;SDS011;19080;51.750;5.888;2023-07-22T02:29:40;17.60;;;14.02;;
32319;SDS011;19080;51.750;5.888;2023-07-22T02:32:07;15.93;;;13.23;;
32319;SDS011;19080;51.750;5.888;2023-07-22T02:34:34;18.70;;;13.25;;
32319;SDS011;19080;51.750;5.888;2023-07-22T02:37:01;18.10;;;12.60;;
32319;SDS011;19080;51.750;5.888;2023-07-22T02:39:28;16.83;;;12.93;;
32319;SDS011;19080;51.750;5.888;2023-07-22T02:41:54;19.65;;;14.57;;
32319;SDS011;19080;51.750;5.888;2023-07-22T02:44:21;17.85;;;14.30;;
32319;SDS011;19080;51.750;5.888;2023-07-22T02:46:48;19.42;;;13.15;;
32319;SDS011;19080;51.750;5.888;2023-07-22T02:49:14;17.38;;;13.85;;
32319;SDS011;19080;51.750;5.888;2023-07-22T02:51:41;20.23;;;15.27;;
32319;SDS011;19080;51.750;5.888;2023-07-22T02:54:08;23.65;;;14.95;;
32319;SDS011;19080;51.750;5.888;2023-07-22T02:56:35;20.88;;;14.55;;
32319;SDS011;19080;51.750;5.888;2023-07-22T02:59:01;20.15;;;15.00;;
32319;SDS011;19080;51.750;5.888;2023-07-22T03:01:28;21.15;;;13.88;;
32319;SDS011;19080;51.750;5.888;2023-07-22T03:03:56;20.50;;;13.95;;
32319;SDS011;19080;51.750;5.888;2023-07-22T03:06:22;24.33;;;16.08;;
32319;SDS011;19080;51.750;5.888;2023-07-22T03:08:49;19.42;;;14.02;;
32319;SDS011;19080;51.750;5.888;2023-07-22T03:11:17;20.58;;;14.25;;
32319;SDS011;19080;51.750;5.888;2023-07-22T03:13:44;22.38;;;14.00;;
32319;SDS011;19080;51.750;5.888;2023-07-22T03:16:11;21.45;;;14.57;;
32319;SDS011;19080;51.750;5.888;2023-07-22T03:18:37;19.50;;;14.13;;
32319;SDS011;19080;51.750;5.888;2023-07-22T03:21:06;18.52;;;12.98;;
32319;SDS011;19080;51.750;5.888;2023-07-22T03:23:33;18.80;;;13.93;;
32319;SDS011;19080;51.750;5.888;2023-07-22T03:25:59;22.80;;;15.60;;
32319;SDS011;19080;51.750;5.888;2023-07-22T03:28:26;21.05;;;14.57;;
32319;SDS011;19080;51.750;5.888;2023-07-22T03:30:53;19.27;;;14.60;;
32319;SDS011;19080;51.750;5.888;2023-07-22T03:33:20;20.85;;;14.63;;
32319;SDS011;19080;51.750;5.888;2023-07-22T03:35:46;26.90;;;16.50;;
32319;SDS011;19080;51.750;5.888;2023-07-22T03:38:13;24.00;;;14.88;;
32319;SDS011;19080;51.750;5.888;2023-07-22T03:40:40;22.08;;;14.38;;
32319;SDS011;19080;51.750;5.888;2023-07-22T03:43:06;20.23;;;13.85;;
32319;SDS011;19080;51.750;5.888;2023-07-22T03:45:33;20.02;;;14.73;;
32319;SDS011;19080;51.750;5.888;2023-07-22T03:48:00;20.88;;;14.80;;
32319;SDS011;19080;51.750;5.888;2023-07-22T03:50:27;22.02;;;14.18;;
32319;SDS011;19080;51.750;5.888;2023-07-22T03:52:54;18.27;;;12.80;;
32319;SDS011;19080;51.750;5.888;2023-07-22T03:55:21;21.33;;;13.77;;
32319;SDS011;19080;51.750;5.888;2023-07-22T03:57:48;20.60;;;14.07;;
32319;SDS011;19080;51.750;5.888;2023-07-22T04:00:14;22.80;;;16.13;;
32319;SDS011;19080;51.750;5.888;2023-07-22T04:02:41;19.77;;;14.57;;
32319;SDS011;19080;51.750;5.888;2023-07-22T04:05:09;21.25;;;15.27;;
32319;SDS011;19080;51.750;5.888;2023-07-22T04:07:36;22.02;;;15.23;;
32319;SDS011;19080;51.750;5.888;2023-07-22T04:10:03;24.85;;;15.80;;
32319;SDS011;19080;51.750;5.888;2023-07-22T04:12:31;20.05;;;13.77;;
32319;SDS011;19080;51.750;5.888;2023-07-22T04:14:57;20.80;;;15.38;;
32319;SDS011;19080;51.750;5.888;2023-07-22T04:17:27;28.58;;;18.08;;
32319;SDS011;19080;51.750;5.888;2023-07-22T04:19:54;20.52;;;14.75;;
32319;SDS011;19080;51.750;5.888;2023-07-22T04:22:21;25.27;;;16.67;;
32319;SDS011;19080;51.750;5.888;2023-07-22T04:24:48;22.85;;;15.30;;
32319;SDS011;19080;51.750;5.888;2023-07-22T04:27:16;21.85;;;14.80;;
32319;SDS011;19080;51.750;5.888;2023-07-22T04:29:45;17.98;;;13.80;;
32319;SDS011;19080;51.750;5.888;2023-07-22T04:32:12;24.92;;;16.20;;
32319;SDS011;19080;51.750;5.888;2023-07-22T04:34:39;22.65;;;15.77;;
32319;SDS011;19080;51.750;5.888;2023-07-22T04:37:06;20.25;;;15.00;;
32319;SDS011;19080;51.750;5.888;2023-07-22T04:39:32;23.88;;;16.33;;
32319;SDS011;19080;51.750;5.888;2023-07-22T04:41:59;20.92;;;15.48;;
32319;SDS011;19080;51.750;5.888;2023-07-22T04:44:26;18.70;;;14.13;;
32319;SDS011;19080;51.750;5.888;2023-07-22T04:46:53;24.65;;;16.38;;
32319;SDS011;19080;51.750;5.888;2023-07-22T04:49:20;20.60;;;16.35;;
32319;SDS011;19080;51.750;5.888;2023-07-22T04:51:48;19.70;;;15.60;;
32319;SDS011;19080;51.750;5.888;2023-07-22T04:54:14;24.55;;;18.35;;
32319;SDS011;19080;51.750;5.888;2023-07-22T04:56:42;24.17;;;15.27;;
32319;SDS011;19080;51.750;5.888;2023-07-22T04:59:09;18.73;;;13.68;;
32319;SDS011;19080;51.750;5.888;2023-07-22T05:01:36;19.08;;;14.73;;
32319;SDS011;19080;51.750;5.888;2023-07-22T05:04:03;21.55;;;15.85;;
32319;SDS011;19080;51.750;5.888;2023-07-22T05:06:31;23.05;;;16.83;;
32319;SDS011;19080;51.750;5.888;2023-07-22T05:08:58;19.30;;;14.70;;
32319;SDS011;19080;51.750;5.888;2023-07-22T05:11:25;20.92;;;15.05;;
32319;SDS011;19080;51.750;5.888;2023-07-22T05:13:52;19.83;;;15.57;;
32319;SDS011;19080;51.750;5.888;2023-07-22T05:16:18;18.40;;;14.38;;
32319;SDS011;19080;51.750;5.888;2023-07-22T05:18:47;20.48;;;14.63;;
32319;SDS011;19080;51.750;5.888;2023-07-22T05:21:14;23.27;;;16.30;;
32319;SDS011;19080;51.750;5.888;2023-07-22T05:23:41;22.95;;;16.05;;
32319;SDS011;19080;51.750;5.888;2023-07-22T05:26:07;22.38;;;14.68;;
32319;SDS011;19080;51.750;5.888;2023-07-22T05:28:34;20.13;;;15.32;;
32319;SDS011;19080;51.750;5.888;2023-07-22T05:31:00;23.52;;;16.20;;
32319;SDS011;19080;51.750;5.888;2023-07-22T05:33:27;21.98;;;15.77;;
32319;SDS011;19080;51.750;5.888;2023-07-22T05:35:54;20.70;;;14.68;;
32319;SDS011;19080;51.750;5.888;2023-07-22T05:38:20;19.98;;;14.48;;
32319;SDS011;19080;51.750;5.888;2023-07-22T05:40:47;22.80;;;15.98;;
32319;SDS011;19080;51.750;5.888;2023-07-22T05:43:14;19.40;;;14.75;;
32319;SDS011;19080;51.750;5.888;2023-07-22T05:45:40;18.48;;;13.07;;
32319;SDS011;19080;51.750;5.888;2023-07-22T05:48:07;17.38;;;13.40;;
32319;SDS011;19080;51.750;5.888;2023-07-22T05:50:34;18.05;;;13.95;;
32319;SDS011;19080;51.750;5.888;2023-07-22T05:53:00;18.83;;;14.38;;
32319;SDS011;19080;51.750;5.888;2023-07-22T05:55:27;17.75;;;13.82;;
32319;SDS011;19080;51.750;5.888;2023-07-22T05:57:54;16.70;;;13.70;;
32319;SDS011;19080;51.750;5.888;2023-07-22T06:00:20;17.50;;;13.93;;
32319;SDS011;19080;51.750;5.888;2023-07-22T06:02:47;16.70;;;13.60;;
32319;SDS011;19080;51.750;5.888;2023-07-22T06:05:15;15.45;;;12.55;;
32319;SDS011;19080;51.750;5.888;2023-07-22T06:07:42;17.63;;;13.57;;
32319;SDS011;19080;51.750;5.888;2023-07-22T06:10:09;20.02;;;14.00;;
32319;SDS011;19080;51.750;5.888;2023-07-22T06:12:36;15.13;;;12.55;;
32319;SDS011;19080;51.750;5.888;2023-07-22T06:15:05;21.30;;;14.20;;
32319;SDS011;19080;51.750;5.888;2023-07-22T06:17:32;15.32;;;13.35;;
32319;SDS011;19080;51.750;5.888;2023-07-22T06:19:59;16.98;;;12.85;;
32319;SDS011;19080;51.750;5.888;2023-07-22T06:22:25;23.48;;;13.50;;
32319;SDS011;19080;51.750;5.888;2023-07-22T06:24:52;19.42;;;14.23;;
32319;SDS011;19080;51.750;5.888;2023-07-22T06:27:19;20.95;;;14.20;;
32319;SDS011;19080;51.750;5.888;2023-07-22T06:29:45;17.30;;;14.35;;
32319;SDS011;19080;51.750;5.888;2023-07-22T06:32:12;17.60;;;13.85;;
32319;SDS011;19080;51.750;5.888;2023-07-22T06:34:39;20.50;;;14.40;;
32319;SDS011;19080;51.750;5.888;2023-07-22T06:37:05;19.83;;;15.05;;
32319;SDS011;19080;51.750;5.888;2023-07-22T06:39:32;17.25;;;13.95;;
32319;SDS011;19080;51.750;5.888;2023-07-22T06:41:59;19.90;;;15.02;;
32319;SDS011;19080;51.750;5.888;2023-07-22T06:44:25;19.00;;;14.65;;
32319;SDS011;19080;51.750;5.888;2023-07-22T06:46:52;24.75;;;15.80;;
32319;SDS011;19080;51.750;5.888;2023-07-22T06:49:19;20.67;;;14.75;;
32319;SDS011;19080;51.750;5.888;2023-07-22T06:51:45;20.77;;;14.98;;
32319;SDS011;19080;51.750;5.888;2023-07-22T06:54:12;21.15;;;14.98;;
32319;SDS011;19080;51.750;5.888;2023-07-22T06:56:39;21.60;;;13.55;;
32319;SDS011;19080;51.750;5.888;2023-07-22T06:59:05;18.73;;;14.77;;
32319;SDS011;19080;51.750;5.888;2023-07-22T07:01:32;21.52;;;14.90;;
32319;SDS011;19080;51.750;5.888;2023-07-22T07:03:59;17.88;;;14.00;;
32319;SDS011;19080;51.750;5.888;2023-07-22T07:06:25;19.77;;;14.63;;
32319;SDS011;19080;51.750;5.888;2023-07-22T07:08:52;20.30;;;15.45;;
32319;SDS011;19080;51.750;5.888;2023-07-22T07:11:19;22.13;;;15.88;;
32319;SDS011;19080;51.750;5.888;2023-07-22T07:13:46;21.10;;;15.18;;
32319;SDS011;19080;51.750;5.888;2023-07-22T07:16:19;18.63;;;14.45;;
32319;SDS011;19080;51.750;5.888;2023-07-22T07:18:49;18.65;;;14.20;;
32319;SDS011;19080;51.750;5.888;2023-07-22T07:21:17;19.67;;;15.00;;
32319;SDS011;19080;51.750;5.888;2023-07-22T07:23:44;21.92;;;15.50;;
32319;SDS011;19080;51.750;5.888;2023-07-22T07:26:11;21.00;;;15.60;;
32319;SDS011;19080;51.750;5.888;2023-07-22T07:28:38;20.35;;;14.07;;
32319;SDS011;19080;51.750;5.888;2023-07-22T07:31:05;18.35;;;14.30;;
32319;SDS011;19080;51.750;5.888;2023-07-22T07:33:32;19.25;;;14.57;;
32319;SDS011;19080;51.750;5.888;2023-07-22T07:36:00;22.23;;;15.15;;
32319;SDS011;19080;51.750;5.888;2023-07-22T07:38:26;20.85;;;14.48;;
32319;SDS011;19080;51.750;5.888;2023-07-22T07:41:12;19.77;;;15.50;;
32319;SDS011;19080;51.750;5.888;2023-07-22T07:43:40;19.02;;;14.38;;
32319;SDS011;19080;51.750;5.888;2023-07-22T07:48:56;21.05;;;15.00;;
32319;SDS011;19080;51.750;5.888;2023-07-22T07:51:25;20.63;;;14.20;;
32319;SDS011;19080;51.750;5.888;2023-07-22T07:53:53;20.30;;;14.00;;
32319;SDS011;19080;51.750;5.888;2023-07-22T07:56:21;18.02;;;14.30;;
32319;SDS011;19080;51.750;5.888;2023-07-22T07:58:49;16.05;;;12.77;;
32319;SDS011;19080;51.750;5.888;2023-07-22T08:01:16;21.75;;;13.55;;
32319;SDS011;19080;51.750;5.888;2023-07-22T08:03:43;18.60;;;13.93;;
32319;SDS011;19080;51.750;5.888;2023-07-22T08:06:10;18.77;;;13.52;;
32319;SDS011;19080;51.750;5.888;2023-07-22T08:08:38;18.15;;;14.00;;
32319;SDS011;19080;51.750;5.888;2023-07-22T08:11:14;19.35;;;12.63;;
32319;SDS011;19080;51.750;5.888;2023-07-22T08:13:42;19.58;;;13.68;;
32319;SDS011;19080;51.750;5.888;2023-07-22T08:16:11;19.85;;;13.90;;
32319;SDS011;19080;51.750;5.888;2023-07-22T08:18:39;19.45;;;13.50;;
32319;SDS011;19080;51.750;5.888;2023-07-22T08:21:06;17.17;;;12.98;;
32319;SDS011;19080;51.750;5.888;2023-07-22T08:23:34;21.60;;;14.85;;
32319;SDS011;19080;51.750;5.888;2023-07-22T08:26:02;16.90;;;12.77;;
32319;SDS011;19080;51.750;5.888;2023-07-22T08:28:31;15.00;;;11.90;;
32319;SDS011;19080;51.750;5.888;2023-07-22T08:30:58;15.95;;;12.20;;
32319;SDS011;19080;51.750;5.888;2023-07-22T08:33:28;20.40;;;12.40;;
32319;SDS011;19080;51.750;5.888;2023-07-22T08:36:06;17.85;;;11.63;;
32319;SDS011;19080;51.750;5.888;2023-07-22T08:38:33;18.98;;;12.43;;
32319;SDS011;19080;51.750;5.888;2023-07-22T08:41:00;17.13;;;12.77;;
32319;SDS011;19080;51.750;5.888;2023-07-22T08:43:27;17.83;;;12.10;;
32319;SDS011;19080;51.750;5.888;2023-07-22T08:45:55;22.38;;;13.05;;
32319;SDS011;19080;51.750;5.888;2023-07-22T08:51:08;21.30;;;11.07;;
32319;SDS011;19080;51.750;5.888;2023-07-22T08:56:05;15.63;;;11.52;;
32319;SDS011;19080;51.750;5.888;2023-07-22T08:58:32;17.40;;;10.65;;
32319;SDS011;19080;51.750;5.888;2023-07-22T09:01:00;16.40;;;11.85;;
32319;SDS011;19080;51.750;5.888;2023-07-22T09:03:28;17.40;;;11.27;;
32319;SDS011;19080;51.750;5.888;2023-07-22T09:05:55;19.50;;;11.00;;
32319;SDS011;19080;51.750;5.888;2023-07-22T09:08:22;17.08;;;10.90;;
32319;SDS011;19080;51.750;5.888;2023-07-22T09:10:49;17.70;;;11.18;;
32319;SDS011;19080;51.750;5.888;2023-07-22T09:13:16;12.23;;;9.27;;
32319;SDS011;19080;51.750;5.888;2023-07-22T09:15:45;14.73;;;9.73;;
32319;SDS011;19080;51.750;5.888;2023-07-22T09:18:14;12.27;;;9.27;;
32319;SDS011;19080;51.750;5.888;2023-07-22T09:20:42;15.07;;;9.13;;
32319;SDS011;19080;51.750;5.888;2023-07-22T09:23:09;10.68;;;8.77;;
32319;SDS011;19080;51.750;5.888;2023-07-22T09:25:40;13.23;;;8.80;;
32319;SDS011;19080;51.750;5.888;2023-07-22T09:28:08;11.80;;;8.60;;
32319;SDS011;19080;51.750;5.888;2023-07-22T09:30:37;12.82;;;8.23;;
32319;SDS011;19080;51.750;5.888;2023-07-22T09:33:06;11.45;;;8.50;;
32319;SDS011;19080;51.750;5.888;2023-07-22T09:35:45;11.23;;;8.00;;
32319;SDS011;19080;51.750;5.888;2023-07-22T09:38:13;9.93;;;6.70;;
32319;SDS011;19080;51.750;5.888;2023-07-22T09:40:43;11.57;;;7.05;;
32319;SDS011;19080;51.750;5.888;2023-07-22T09:43:10;11.95;;;6.38;;
32319;SDS011;19080;51.750;5.888;2023-07-22T09:45:38;10.45;;;7.07;;
32319;SDS011;19080;51.750;5.888;2023-07-22T09:48:05;9.00;;;6.43;;
32319;SDS011;19080;51.750;5.888;2023-07-22T09:50:35;10.20;;;6.10;;
32319;SDS011;19080;51.750;5.888;2023-07-22T09:53:03;8.60;;;6.03;;
32319;SDS011;19080;51.750;5.888;2023-07-22T09:55:30;10.38;;;5.55;;
32319;SDS011;19080;51.750;5.888;2023-07-22T09:57:58;9.25;;;5.57;;
32319;SDS011;19080;51.750;5.888;2023-07-22T10:00:30;9.80;;;5.35;;
32319;SDS011;19080;51.750;5.888;2023-07-22T10:03:00;8.57;;;5.25;;
32319;SDS011;19080;51.750;5.888;2023-07-22T10:05:28;10.80;;;4.47;;
32319;SDS011;19080;51.750;5.888;2023-07-22T10:07:56;6.30;;;4.05;;
32319;SDS011;19080;51.750;5.888;2023-07-22T10:10:31;6.13;;;4.80;;
32319;SDS011;19080;51.750;5.888;2023-07-22T10:13:02;7.35;;;4.85;;
32319;SDS011;19080;51.750;5.888;2023-07-22T10:15:30;6.60;;;4.60;;
32319;SDS011;19080;51.750;5.888;2023-07-22T10:17:59;8.95;;;5.38;;
32319;SDS011;19080;51.750;5.888;2023-07-22T10:20:27;6.60;;;3.67;;
32319;SDS011;19080;51.750;5.888;2023-07-22T10:22:54;8.00;;;4.05;;
32319;SDS011;19080;51.750;5.888;2023-07-22T10:25:22;8.75;;;5.00;;
32319;SDS011;19080;51.750;5.888;2023-07-22T10:27:52;8.52;;;4.90;;
32319;SDS011;19080;51.750;5.888;2023-07-22T10:30:19;8.13;;;4.90;;
32319;SDS011;19080;51.750;5.888;2023-07-22T10:32:47;8.88;;;4.55;;
32319;SDS011;19080;51.750;5.888;2023-07-22T10:38:07;8.50;;;4.75;;
32319;SDS011;19080;51.750;5.888;2023-07-22T10:40:45;8.25;;;4.00;;
32319;SDS011;19080;51.750;5.888;2023-07-22T10:46:11;9.98;;;4.50;;
32319;SDS011;19080;51.750;5.888;2023-07-22T10:48:39;7.53;;;3.83;;
32319;SDS011;19080;51.750;5.888;2023-07-22T10:51:11;7.85;;;3.72;;
32319;SDS011;19080;51.750;5.888;2023-07-22T10:53:42;5.53;;;3.72;;
32319;SDS011;19080;51.750;5.888;2023-07-22T10:56:14;5.72;;;4.55;;
32319;SDS011;19080;51.750;5.888;2023-07-22T11:06:37;9.63;;;3.78;;
32319;SDS011;19080;51.750;5.888;2023-07-22T11:09:06;9.38;;;3.90;;
32319;SDS011;19080;51.750;5.888;2023-07-22T11:11:39;6.72;;;4.35;;
32319;SDS011;19080;51.750;5.888;2023-07-22T11:14:16;6.13;;;4.03;;
32319;SDS011;19080;51.750;5.888;2023-07-22T11:16:45;4.90;;;3.85;;
32319;SDS011;19080;51.750;5.888;2023-07-22T11:19:13;6.32;;;3.42;;
32319;SDS011;19080;51.750;5.888;2023-07-22T11:21:42;4.57;;;3.05;;
32319;SDS011;19080;51.750;5.888;2023-07-22T11:24:10;3.50;;;3.05;;
32319;SDS011;19080;51.750;5.888;2023-07-22T11:26:37;7.50;;;3.38;;
32319;SDS011;19080;51.750;5.888;2023-07-22T11:29:04;6.50;;;3.67;;
32319;SDS011;19080;51.750;5.888;2023-07-22T11:31:32;5.38;;;2.83;;
32319;SDS011;19080;51.750;5.888;2023-07-22T11:34:03;6.50;;;3.05;;
32319;SDS011;19080;51.750;5.888;2023-07-22T11:36:31;6.70;;;3.25;;
32319;SDS011;19080;51.750;5.888;2023-07-22T11:39:05;3.97;;;2.92;;
32319;SDS011;19080;51.750;5.888;2023-07-22T11:41:34;7.68;;;3.08;;
32319;SDS011;19080;51.750;5.888;2023-07-22T11:44:02;6.05;;;3.17;;
32319;SDS011;19080;51.750;5.888;2023-07-22T11:46:35;5.78;;;2.85;;
32319;SDS011;19080;51.750;5.888;2023-07-22T11:49:02;5.68;;;3.22;;
32319;SDS011;19080;51.750;5.888;2023-07-22T11:51:29;5.05;;;2.92;;
32319;SDS011;19080;51.750;5.888;2023-07-22T11:53:56;5.03;;;2.60;;
32319;SDS011;19080;51.750;5.888;2023-07-22T11:56:25;4.63;;;2.20;;
32319;SDS011;19080;51.750;5.888;2023-07-22T11:58:54;3.13;;;1.90;;
32319;SDS011;19080;51.750;5.888;2023-07-22T12:01:23;2.67;;;1.90;;
32319;SDS011;19080;51.750;5.888;2023-07-22T12:03:55;4.53;;;2.10;;
32319;SDS011;19080;51.750;5.888;2023-07-22T12:06:24;4.88;;;2.05;;
32319;SDS011;19080;51.750;5.888;2023-07-22T12:08:52;3.92;;;2.03;;
32319;SDS011;19080;51.750;5.888;2023-07-22T12:11:20;3.60;;;2.20;;
32319;SDS011;19080;51.750;5.888;2023-07-22T12:13:49;3.10;;;1.90;;
32319;SDS011;19080;51.750;5.888;2023-07-22T12:16:30;5.15;;;1.95;;
32319;SDS011;19080;51.750;5.888;2023-07-22T12:18:57;2.35;;;1.40;;
32319;SDS011;19080;51.750;5.888;2023-07-22T12:21:23;5.70;;;2.03;;
32319;SDS011;19080;51.750;5.888;2023-07-22T12:23:52;2.80;;;1.63;;
32319;SDS011;19080;51.750;5.888;2023-07-22T12:26:20;3.90;;;1.80;;
32319;SDS011;19080;51.750;5.888;2023-07-22T12:28:47;4.07;;;1.80;;
32319;SDS011;19080;51.750;5.888;2023-07-22T12:31:13;5.05;;;1.75;;
32319;SDS011;19080;51.750;5.888;2023-07-22T12:33:40;3.92;;;1.90;;
32319;SDS011;19080;51.750;5.888;2023-07-22T12:36:07;5.97;;;1.73;;
32319;SDS011;19080;51.750;5.888;2023-07-22T12:38:33;5.05;;;1.92;;
32319;SDS011;19080;51.750;5.888;2023-07-22T12:41:00;4.60;;;1.95;;
32319;SDS011;19080;51.750;5.888;2023-07-22T12:43:27;5.28;;;2.25;;
32319;SDS011;19080;51.750;5.888;2023-07-22T12:45:54;9.27;;;2.67;;
32319;SDS011;19080;51.750;5.888;2023-07-22T12:48:21;5.28;;;2.17;;
32319;SDS011;19080;51.750;5.888;2023-07-22T12:50:47;7.35;;;1.80;;
32319;SDS011;19080;51.750;5.888;2023-07-22T12:53:14;7.63;;;2.25;;
32319;SDS011;19080;51.750;5.888;2023-07-22T12:55:41;3.92;;;2.10;;
32319;SDS011;19080;51.750;5.888;2023-07-22T12:58:07;6.20;;;2.10;;
32319;SDS011;19080;51.750;5.888;2023-07-22T13:00:34;4.00;;;1.85;;
32319;SDS011;19080;51.750;5.888;2023-07-22T13:03:01;7.85;;;2.10;;
32319;SDS011;19080;51.750;5.888;2023-07-22T13:05:28;5.40;;;2.08;;
32319;SDS011;19080;51.750;5.888;2023-07-22T13:07:54;3.03;;;2.10;;
32319;SDS011;19080;51.750;5.888;2023-07-22T13:10:22;3.58;;;2.10;;
32319;SDS011;19080;51.750;5.888;2023-07-22T13:12:49;3.08;;;2.20;;
32319;SDS011;19080;51.750;5.888;2023-07-22T13:15:16;3.33;;;1.92;;
32319;SDS011;19080;51.750;5.888;2023-07-22T13:17:42;4.68;;;2.20;;
32319;SDS011;19080;51.750;5.888;2023-07-22T13:20:09;3.53;;;1.67;;
32319;SDS011;19080;51.750;5.888;2023-07-22T13:22:38;5.35;;;2.00;;
32319;SDS011;19080;51.750;5.888;2023-07-22T13:25:05;3.97;;;2.17;;
32319;SDS011;19080;51.750;5.888;2023-07-22T13:27:32;3.95;;;1.90;;
32319;SDS011;19080;51.750;5.888;2023-07-22T13:30:00;6.57;;;2.20;;
32319;SDS011;19080;51.750;5.888;2023-07-22T13:32:27;3.33;;;2.00;;
32319;SDS011;19080;51.750;5.888;2023-07-22T13:34:53;3.22;;;2.35;;
32319;SDS011;19080;51.750;5.888;2023-07-22T13:37:20;2.72;;;2.10;;
32319;SDS011;19080;51.750;5.888;2023-07-22T13:39:46;4.40;;;2.08;;
32319;SDS011;19080;51.750;5.888;2023-07-22T13:42:13;4.47;;;2.38;;
32319;SDS011;19080;51.750;5.888;2023-07-22T13:44:40;2.72;;;1.92;;
32319;SDS011;19080;51.750;5.888;2023-07-22T13:47:06;2.97;;;2.15;;
32319;SDS011;19080;51.750;5.888;2023-07-22T13:49:33;4.53;;;2.28;;
32319;SDS011;19080;51.750;5.888;2023-07-22T13:51:59;3.88;;;2.22;;
32319;SDS011;19080;51.750;5.888;2023-07-22T13:54:26;4.10;;;2.08;;
32319;SDS011;19080;51.750;5.888;2023-07-22T13:56:53;2.72;;;1.80;;
32319;SDS011;19080;51.750;5.888;2023-07-22T13:59:19;3.35;;;2.00;;
32319;SDS011;19080;51.750;5.888;2023-07-22T14:01:46;4.20;;;2.13;;
32319;SDS011;19080;51.750;5.888;2023-07-22T14:04:13;4.28;;;1.75;;
32319;SDS011;19080;51.750;5.888;2023-07-22T14:06:39;3.35;;;1.75;;
32319;SDS011;19080;51.750;5.888;2023-07-22T14:09:06;5.65;;;1.83;;
32319;SDS011;19080;51.750;5.888;2023-07-22T14:11:32;3.05;;;2.05;;
32319;SDS011;19080;51.750;5.888;2023-07-22T14:13:59;2.45;;;1.85;;
32319;SDS011;19080;51.750;5.888;2023-07-22T14:16:26;2.55;;;1.70;;
32319;SDS011;19080;51.750;5.888;2023-07-22T14:18:52;2.85;;;2.08;;
32319;SDS011;19080;51.750;5.888;2023-07-22T14:21:21;5.22;;;2.40;;
32319;SDS011;19080;51.750;5.888;2023-07-22T14:23:47;3.30;;;1.70;;
32319;SDS011;19080;51.750;5.888;2023-07-22T14:26:14;1.88;;;1.60;;
32319;SDS011;19080;51.750;5.888;2023-07-22T14:28:41;3.63;;;1.95;;
32319;SDS011;19080;51.750;5.888;2023-07-22T14:31:07;4.07;;;1.77;;
32319;SDS011;19080;51.750;5.888;2023-07-22T14:33:34;3.17;;;1.48;;
32319;SDS011;19080;51.750;5.888;2023-07-22T14:36:01;2.60;;;1.63;;
32319;SDS011;19080;51.750;5.888;2023-07-22T14:38:27;3.00;;;1.95;;
32319;SDS011;19080;51.750;5.888;2023-07-22T14:40:54;3.60;;;1.70;;
32319;SDS011;19080;51.750;5.888;2023-07-22T14:43:21;3.20;;;2.10;;
32319;SDS011;19080;51.750;5.888;2023-07-22T14:45:48;3.95;;;2.03;;
32319;SDS011;19080;51.750;5.888;2023-07-22T14:48:15;3.20;;;2.13;;
32319;SDS011;19080;51.750;5.888;2023-07-22T14:50:42;4.22;;;1.80;;
32319;SDS011;19080;51.750;5.888;2023-07-22T14:53:08;3.30;;;2.00;;
32319;SDS011;19080;51.750;5.888;2023-07-22T14:55:35;1.75;;;1.50;;